createdAt,value
2017-11-29T00:00:41.570Z,5.90
2017-11-29T00:01:41.570Z,5.70
2017-11-29T00:02:41.554Z,7.60
2017-11-29T00:03:41.544Z,5.60
2017-11-29T00:04:41.537Z,5.80
2017-11-29T00:05:41.534Z,5.70
2017-11-29T00:06:41.519Z,6.60
2017-11-29T00:07:41.512Z,7.10
2017-11-29T00:08:41.503Z,8.70
2017-11-29T00:09:41.495Z,5.50
2017-11-29T00:10:41.485Z,5.00
2017-11-29T00:11:41.476Z,13.30
2017-11-29T00:12:41.469Z,9.20
2017-11-29T00:13:41.460Z,11.00
2017-11-29T00:14:41.451Z,13.50
2017-11-29T00:15:41.443Z,10.50
2017-11-29T00:16:41.434Z,6.30
2017-11-29T00:17:41.426Z,8.90
2017-11-29T00:18:41.417Z,8.60
2017-11-29T00:19:41.415Z,5.30
2017-11-29T00:20:41.399Z,8.00
2017-11-29T00:21:41.390Z,5.50
2017-11-29T00:22:41.383Z,15.70
2017-11-29T00:23:41.373Z,8.70
2017-11-29T00:24:41.365Z,9.40
2017-11-29T00:25:41.356Z,7.90
2017-11-29T00:26:41.348Z,7.90
2017-11-29T00:27:41.349Z,6.80
2017-11-29T00:28:41.332Z,7.60
2017-11-29T00:29:41.321Z,7.60
2017-11-29T00:30:41.313Z,9.40
2017-11-29T00:31:41.309Z,6.10
2017-11-29T00:32:41.301Z,7.60
2017-11-29T00:33:41.287Z,9.50
2017-11-29T00:34:41.280Z,7.50
2017-11-29T00:35:41.271Z,14.10
2017-11-29T00:36:41.260Z,12.30
2017-11-29T00:37:41.253Z,11.60
2017-11-29T00:38:41.245Z,7.50
2017-11-29T00:39:41.236Z,12.10
2017-11-29T00:40:41.228Z,8.00
2017-11-29T00:41:41.218Z,8.70
2017-11-29T00:42:41.210Z,15.90
2017-11-29T00:43:41.203Z,15.50
2017-11-29T00:44:41.191Z,10.50
2017-11-29T00:45:41.186Z,9.10
2017-11-29T00:46:41.177Z,12.60
2017-11-29T00:47:41.168Z,8.20
2017-11-29T00:48:41.162Z,11.80
2017-11-29T00:49:41.172Z,12.90
2017-11-29T00:50:41.142Z,12.90
2017-11-29T00:51:41.152Z,8.10
2017-11-29T00:52:41.123Z,11.90
2017-11-29T00:53:41.116Z,9.40
2017-11-29T00:54:41.107Z,8.80
2017-11-29T00:55:41.098Z,9.10
2017-11-29T00:56:41.089Z,12.80
2017-11-29T00:57:41.080Z,12.00
2017-11-29T00:58:41.072Z,10.40
2017-11-29T00:59:41.064Z,12.80
2017-11-29T01:00:41.053Z,12.60
2017-11-29T01:01:41.046Z,16.20
2017-11-29T01:02:41.039Z,14.20
2017-11-29T01:03:41.030Z,7.60
2017-11-29T01:04:41.025Z,13.50
2017-11-29T01:05:41.011Z,8.50
2017-11-29T01:06:41.002Z,15.10
2017-11-29T01:07:40.997Z,17.90
2017-11-29T01:08:40.986Z,10.60
2017-11-29T01:09:40.978Z,10.80
2017-11-29T01:10:40.968Z,10.00
2017-11-29T01:11:40.961Z,16.30
2017-11-29T01:12:40.951Z,12.70
2017-11-29T01:13:40.943Z,8.80
2017-11-29T01:14:40.934Z,16.20
2017-11-29T01:15:40.925Z,14.30
2017-11-29T01:16:40.916Z,9.40
2017-11-29T01:17:40.908Z,18.90
2017-11-29T01:18:40.906Z,10.40
2017-11-29T01:19:40.897Z,12.90
2017-11-29T01:20:40.882Z,11.90
2017-11-29T01:21:40.872Z,10.40
2017-11-29T01:22:40.864Z,11.40
2017-11-29T01:23:40.855Z,18.60
2017-11-29T01:24:40.848Z,18.80
2017-11-29T01:25:40.843Z,12.50
2017-11-29T01:26:40.830Z,11.30
2017-11-29T01:27:40.823Z,15.00
2017-11-29T01:28:40.813Z,17.60
2017-11-29T01:29:40.803Z,19.70
2017-11-29T01:30:40.797Z,25.40
2017-11-29T01:31:40.785Z,16.20
2017-11-29T01:32:40.778Z,11.90
2017-11-29T01:33:40.770Z,11.30
2017-11-29T01:34:40.761Z,18.30
2017-11-29T01:35:40.753Z,19.70
2017-11-29T01:36:40.744Z,20.20
2017-11-29T01:37:40.734Z,15.10
2017-11-29T01:38:40.727Z,15.40
2017-11-29T01:39:40.718Z,17.60
2017-11-29T01:40:40.711Z,11.10
2017-11-29T01:41:40.699Z,16.40
2017-11-29T01:42:40.691Z,14.00
2017-11-29T01:43:40.682Z,12.60
2017-11-29T01:44:40.672Z,16.00
2017-11-29T01:45:40.670Z,12.70
2017-11-29T01:46:40.655Z,14.30
2017-11-29T01:47:40.655Z,13.10
2017-11-29T01:48:40.638Z,17.60
2017-11-29T01:49:40.631Z,18.00
2017-11-29T01:50:40.622Z,14.10
2017-11-29T01:51:40.613Z,19.20
2017-11-29T01:52:40.603Z,13.80
2017-11-29T01:53:40.596Z,16.70
2017-11-29T01:54:40.586Z,21.80
2017-11-29T01:55:40.579Z,13.70
2017-11-29T01:56:40.568Z,9.00
2017-11-29T01:57:40.561Z,16.50
2017-11-29T01:58:40.552Z,11.60
2017-11-29T01:59:40.544Z,12.70
2017-11-29T02:00:40.534Z,16.90
2017-11-29T02:01:40.526Z,16.80
2017-11-29T02:02:40.518Z,13.00
2017-11-29T02:03:40.509Z,14.70
2017-11-29T02:04:40.499Z,13.80
2017-11-29T02:05:40.491Z,9.80
2017-11-29T02:06:40.482Z,19.50
2017-11-29T02:07:40.473Z,17.90
2017-11-29T02:08:40.466Z,16.90
2017-11-29T02:09:40.458Z,22.90
2017-11-29T02:10:40.449Z,11.90
2017-11-29T02:11:40.440Z,11.00
2017-11-29T02:12:40.430Z,12.00
2017-11-29T02:13:40.457Z,13.50
2017-11-29T02:14:40.418Z,17.60
2017-11-29T02:15:40.405Z,17.70
2017-11-29T02:16:40.396Z,15.70
2017-11-29T02:17:40.387Z,14.80
2017-11-29T02:18:40.379Z,15.50
2017-11-29T02:19:40.372Z,13.70
2017-11-29T02:20:40.361Z,12.40
2017-11-29T02:21:40.354Z,13.70
2017-11-29T02:22:40.352Z,11.90
2017-11-29T02:23:40.346Z,19.10
2017-11-29T02:24:40.327Z,16.10
2017-11-29T02:25:40.317Z,15.90
2017-11-29T02:26:40.309Z,14.50
2017-11-29T02:27:40.301Z,16.10
2017-11-29T02:28:40.291Z,13.00
2017-11-29T02:29:40.282Z,11.70
2017-11-29T02:30:40.280Z,12.90
2017-11-29T02:31:40.266Z,17.10
2017-11-29T02:32:40.257Z,15.70
2017-11-29T02:33:40.249Z,14.80
2017-11-29T02:34:40.240Z,14.20
2017-11-29T02:35:40.237Z,18.20
2017-11-29T02:36:40.222Z,17.10
2017-11-29T02:37:40.214Z,16.20
2017-11-29T02:38:40.206Z,15.80
2017-11-29T02:39:40.207Z,16.70
2017-11-29T02:40:40.190Z,17.20
2017-11-29T02:41:40.185Z,12.80
2017-11-29T02:42:40.172Z,19.40
2017-11-29T02:43:40.169Z,17.30
2017-11-29T02:44:40.153Z,16.00
2017-11-29T02:45:40.146Z,16.10
2017-11-29T02:46:40.138Z,14.00
2017-11-29T02:47:40.127Z,11.40
2017-11-29T02:48:40.121Z,15.60
2017-11-29T02:49:40.114Z,16.10
2017-11-29T02:50:40.103Z,14.40
2017-11-29T02:51:40.092Z,14.20
2017-11-29T02:52:40.084Z,10.20
2017-11-29T02:53:40.077Z,13.60
2017-11-29T02:54:40.069Z,18.50
2017-11-29T02:55:40.060Z,18.80
2017-11-29T02:56:40.051Z,12.30
2017-11-29T02:57:40.041Z,16.50
2017-11-29T02:58:40.033Z,14.60
2017-11-29T02:59:40.025Z,14.00
2017-11-29T03:00:40.016Z,14.00
2017-11-29T03:01:40.008Z,17.70
2017-11-29T03:02:40.004Z,13.70
2017-11-29T03:03:39.991Z,10.90
2017-11-29T03:04:39.982Z,14.80
2017-11-29T03:05:39.973Z,22.80
2017-11-29T03:06:39.967Z,15.50
2017-11-29T03:07:39.957Z,12.70
2017-11-29T03:08:39.947Z,15.20
2017-11-29T03:09:39.939Z,17.10
2017-11-29T03:10:39.932Z,23.10
2017-11-29T03:11:39.925Z,15.70
2017-11-29T03:12:39.916Z,23.40
2017-11-29T03:13:39.905Z,16.50
2017-11-29T03:14:39.899Z,20.20
2017-11-29T03:15:39.891Z,18.20
2017-11-29T03:16:39.882Z,20.00
2017-11-29T03:17:39.873Z,22.70
2017-11-29T03:18:39.863Z,13.70
2017-11-29T03:19:39.857Z,15.20
2017-11-29T03:20:39.847Z,24.50
2017-11-29T03:21:39.840Z,20.30
2017-11-29T03:22:39.832Z,26.40
2017-11-29T03:23:39.821Z,21.70
2017-11-29T03:24:39.814Z,19.20
2017-11-29T03:25:39.805Z,14.60
2017-11-29T03:26:39.799Z,22.20
2017-11-29T03:27:39.789Z,22.20
2017-11-29T03:28:39.779Z,20.60
2017-11-29T03:29:39.770Z,22.70
2017-11-29T03:30:39.765Z,30.70
2017-11-29T03:31:39.756Z,20.80
2017-11-29T03:32:39.745Z,22.50
2017-11-29T03:33:39.739Z,23.10
2017-11-29T03:34:39.730Z,17.90
2017-11-29T03:35:39.722Z,26.90
2017-11-29T03:36:39.714Z,36.80
2017-11-29T03:37:39.705Z,17.00
2017-11-29T03:38:39.698Z,43.70
2017-11-29T03:39:39.689Z,27.50
2017-11-29T03:40:39.679Z,19.40
2017-11-29T03:41:39.670Z,34.50
2017-11-29T03:42:39.663Z,30.10
2017-11-29T03:43:39.656Z,26.30
2017-11-29T03:44:39.646Z,32.70
2017-11-29T03:45:39.639Z,25.60
2017-11-29T03:46:39.629Z,27.50
2017-11-29T03:47:39.621Z,21.80
2017-11-29T03:48:39.612Z,30.70
2017-11-29T03:49:39.605Z,24.40
2017-11-29T03:50:39.595Z,29.10
2017-11-29T03:51:39.591Z,23.90
2017-11-29T03:52:39.580Z,20.80
2017-11-29T03:53:39.570Z,28.90
2017-11-29T03:54:39.563Z,44.40
2017-11-29T03:55:39.561Z,25.40
2017-11-29T03:56:39.547Z,28.00
2017-11-29T03:57:39.536Z,42.80
2017-11-29T03:58:39.530Z,39.00
2017-11-29T03:59:39.520Z,33.70
2017-11-29T04:00:39.512Z,54.50
2017-11-29T04:01:39.503Z,28.20
2017-11-29T04:02:39.498Z,29.20
2017-11-29T04:03:39.487Z,29.60
2017-11-29T04:04:39.479Z,41.60
2017-11-29T04:05:39.471Z,24.10
2017-11-29T04:06:39.467Z,25.70
2017-11-29T04:07:39.453Z,26.50
2017-11-29T04:08:39.444Z,26.40
2017-11-29T04:09:39.437Z,36.80
2017-11-29T04:10:39.428Z,27.80
2017-11-29T04:11:39.421Z,33.50
2017-11-29T04:12:39.412Z,31.20
2017-11-29T04:13:39.405Z,38.50
2017-11-29T04:14:39.394Z,36.30
2017-11-29T04:15:39.388Z,28.70
2017-11-29T04:16:39.379Z,29.90
2017-11-29T04:17:39.372Z,33.30
2017-11-29T04:18:39.363Z,35.70
2017-11-29T04:19:39.354Z,36.60
2017-11-29T04:20:39.347Z,23.50
2017-11-29T04:21:39.343Z,25.80
2017-11-29T04:22:39.329Z,37.60
2017-11-29T04:23:39.321Z,25.40
2017-11-29T04:24:39.320Z,27.70
2017-11-29T04:25:39.306Z,36.10
2017-11-29T04:26:39.297Z,31.60
2017-11-29T04:27:39.290Z,31.50
2017-11-29T04:28:39.280Z,43.30
2017-11-29T04:29:39.272Z,49.30
2017-11-29T04:30:39.264Z,33.00
2017-11-29T04:31:39.255Z,22.70
2017-11-29T04:32:39.254Z,25.10
2017-11-29T04:33:39.238Z,23.20
2017-11-29T04:34:39.230Z,29.50
2017-11-29T04:35:39.223Z,34.00
2017-11-29T04:36:39.220Z,30.00
2017-11-29T04:37:39.207Z,25.70
2017-11-29T04:38:39.199Z,40.00
2017-11-29T04:39:39.192Z,31.20
2017-11-29T04:40:39.182Z,28.70
2017-11-29T04:41:39.174Z,42.10
2017-11-29T04:42:39.165Z,28.70
2017-11-29T04:43:39.160Z,46.40
2017-11-29T04:44:39.149Z,31.50
2017-11-29T04:45:39.142Z,35.20
2017-11-29T04:46:39.134Z,24.30
2017-11-29T04:47:39.126Z,22.20
2017-11-29T04:48:39.118Z,29.30
2017-11-29T04:49:39.109Z,30.00
2017-11-29T04:50:39.101Z,27.80
2017-11-29T04:51:39.095Z,29.60
2017-11-29T04:52:39.089Z,31.50
2017-11-29T04:53:39.079Z,28.70
2017-11-29T04:54:39.069Z,41.60
2017-11-29T04:55:39.061Z,30.30
2017-11-29T04:56:39.053Z,24.30
2017-11-29T04:57:39.044Z,28.80
2017-11-29T04:58:39.036Z,25.30
2017-11-29T04:59:39.037Z,25.70
2017-11-29T05:00:39.021Z,35.00
2017-11-29T05:01:39.012Z,31.30
2017-11-29T05:02:39.004Z,27.00
2017-11-29T05:03:38.998Z,27.60
2017-11-29T05:04:38.987Z,27.20
2017-11-29T05:05:38.983Z,43.30
2017-11-29T05:06:38.972Z,32.30
2017-11-29T05:07:38.965Z,26.30
2017-11-29T05:08:38.955Z,29.60
2017-11-29T05:09:38.948Z,47.30
2017-11-29T05:10:38.946Z,41.80
2017-11-29T05:11:38.931Z,32.80
2017-11-29T05:12:38.923Z,37.70
2017-11-29T05:13:38.916Z,39.00
2017-11-29T05:14:38.906Z,24.30
2017-11-29T05:15:38.901Z,41.80
2017-11-29T05:16:38.889Z,35.30
2017-11-29T05:17:38.889Z,37.30
2017-11-29T05:18:38.873Z,49.20
2017-11-29T05:19:38.865Z,69.70
2017-11-29T05:20:38.858Z,45.40
2017-11-29T05:21:38.852Z,31.90
2017-11-29T05:22:38.841Z,58.50
2017-11-29T05:23:38.834Z,42.60
2017-11-29T05:24:38.824Z,63.50
2017-11-29T05:25:38.817Z,43.20
2017-11-29T05:26:38.811Z,41.60
2017-11-29T05:27:38.802Z,47.80
2017-11-29T05:28:38.791Z,42.80
2017-11-29T05:29:38.784Z,32.30
2017-11-29T05:30:38.777Z,30.60
2017-11-29T05:31:38.769Z,41.70
2017-11-29T05:32:38.762Z,53.30
2017-11-29T05:33:38.752Z,47.20
2017-11-29T05:34:38.744Z,49.70
2017-11-29T05:35:38.736Z,43.70
2017-11-29T05:36:38.728Z,37.40
2017-11-29T05:37:38.721Z,62.90
2017-11-29T05:38:38.713Z,22.40
2017-11-29T05:39:38.704Z,37.60
2017-11-29T05:40:38.696Z,36.80
2017-11-29T05:41:38.686Z,27.50
2017-11-29T05:42:38.680Z,44.40
2017-11-29T05:43:38.672Z,29.90
2017-11-29T05:44:38.663Z,32.70
2017-11-29T05:45:38.654Z,40.40
2017-11-29T05:46:38.647Z,28.90
2017-11-29T05:47:38.639Z,54.40
2017-11-29T05:48:38.630Z,46.50
2017-11-29T05:49:38.622Z,32.40
2017-11-29T05:50:38.613Z,42.50
2017-11-29T05:51:38.607Z,45.00
2017-11-29T05:52:38.598Z,38.10
2017-11-29T05:53:38.591Z,42.70
2017-11-29T05:54:38.582Z,39.70
2017-11-29T05:55:38.574Z,49.80
2017-11-29T05:56:38.565Z,22.80
2017-11-29T05:57:38.559Z,33.00
2017-11-29T05:58:38.549Z,32.30
2017-11-29T05:59:38.541Z,40.10
2017-11-29T06:00:38.533Z,37.40
2017-11-29T06:01:38.526Z,33.60
2017-11-29T06:02:38.518Z,54.60
2017-11-29T06:03:38.510Z,52.20
2017-11-29T06:04:38.501Z,24.80
2017-11-29T06:05:38.501Z,42.80
2017-11-29T06:06:38.484Z,54.70
2017-11-29T06:07:38.491Z,65.00
2017-11-29T06:08:38.467Z,37.20
2017-11-29T06:09:38.459Z,37.20
2017-11-29T06:10:38.454Z,41.10
2017-11-29T06:11:38.443Z,32.50
2017-11-29T06:12:38.438Z,50.40
2017-11-29T06:13:38.426Z,41.30
2017-11-29T06:14:38.419Z,47.70
2017-11-29T06:15:38.411Z,46.70
2017-11-29T06:16:38.400Z,50.30
2017-11-29T06:17:38.394Z,45.20
2017-11-29T06:18:38.386Z,33.30
2017-11-29T06:19:38.378Z,47.60
2017-11-29T06:20:38.370Z,38.20
2017-11-29T06:21:38.361Z,32.80
2017-11-29T06:22:38.353Z,25.40
2017-11-29T06:23:38.345Z,37.80
2017-11-29T06:24:38.337Z,30.70
2017-11-29T06:25:38.330Z,46.10
2017-11-29T06:26:38.323Z,21.30
2017-11-29T06:27:38.316Z,32.90
2017-11-29T06:28:38.304Z,26.80
2017-11-29T06:29:38.295Z,37.60
2017-11-29T06:30:38.288Z,31.20
2017-11-29T06:31:38.280Z,20.00
2017-11-29T06:32:38.270Z,25.10
2017-11-29T06:33:38.264Z,41.30
2017-11-29T06:34:38.256Z,27.90
2017-11-29T06:35:38.248Z,38.50
2017-11-29T06:36:38.239Z,19.60
2017-11-29T06:37:38.230Z,37.90
2017-11-29T06:38:38.224Z,33.40
2017-11-29T06:39:38.217Z,22.50
2017-11-29T06:40:38.209Z,24.50
2017-11-29T06:41:38.198Z,24.00
2017-11-29T06:42:38.190Z,24.00
2017-11-29T06:43:38.182Z,27.30
2017-11-29T06:44:38.175Z,26.50
2017-11-29T06:45:38.164Z,25.50
2017-11-29T06:46:38.164Z,31.50
2017-11-29T06:47:38.153Z,28.80
2017-11-29T06:48:38.151Z,21.10
2017-11-29T06:49:38.133Z,27.80
2017-11-29T06:50:38.125Z,26.80
2017-11-29T06:51:38.117Z,22.60
2017-11-29T06:52:38.113Z,28.50
2017-11-29T06:53:38.099Z,23.20
2017-11-29T06:54:38.095Z,26.50
2017-11-29T06:55:38.082Z,23.10
2017-11-29T06:56:38.079Z,24.00
2017-11-29T06:57:38.067Z,34.70
2017-11-29T06:58:38.059Z,25.40
2017-11-29T06:59:38.050Z,30.20
2017-11-29T07:00:38.042Z,27.20
2017-11-29T07:01:38.051Z,27.20
2017-11-29T07:02:38.029Z,23.70
2017-11-29T07:03:38.016Z,32.00
2017-11-29T07:04:38.008Z,24.90
2017-11-29T07:05:37.999Z,20.90
2017-11-29T07:06:37.992Z,25.60
2017-11-29T07:07:37.983Z,29.50
2017-11-29T07:08:37.976Z,25.50
2017-11-29T07:09:37.976Z,21.90
2017-11-29T07:10:37.958Z,25.90
2017-11-29T07:11:37.958Z,26.40
2017-11-29T07:12:37.940Z,40.00
2017-11-29T07:13:37.934Z,25.20
2017-11-29T07:14:37.924Z,29.30
2017-11-29T07:15:37.917Z,31.10
2017-11-29T07:16:37.909Z,36.00
2017-11-29T07:17:37.898Z,33.60
2017-11-29T07:18:37.892Z,37.90
2017-11-29T07:19:37.891Z,27.90
2017-11-29T07:20:37.877Z,33.50
2017-11-29T07:21:37.867Z,39.20
2017-11-29T07:22:37.859Z,35.70
2017-11-29T07:23:37.849Z,40.40
2017-11-29T07:24:37.842Z,27.40
2017-11-29T07:25:37.832Z,26.60
2017-11-29T07:26:37.824Z,24.50
2017-11-29T07:27:37.815Z,27.10
2017-11-29T07:28:37.807Z,36.90
2017-11-29T07:29:37.799Z,28.90
2017-11-29T07:30:37.791Z,32.40
2017-11-29T07:31:37.784Z,28.60
2017-11-29T07:32:37.774Z,28.50
2017-11-29T07:33:37.767Z,16.70
2017-11-29T07:34:37.758Z,30.60
2017-11-29T07:35:37.750Z,22.80
2017-11-29T07:36:37.740Z,31.30
2017-11-29T07:37:37.732Z,33.00
2017-11-29T07:38:37.723Z,30.80
2017-11-29T07:39:37.716Z,27.50
2017-11-29T07:40:37.707Z,28.10
2017-11-29T07:41:37.700Z,33.10
2017-11-29T07:42:37.691Z,34.10
2017-11-29T07:43:37.682Z,22.40
2017-11-29T07:44:37.691Z,29.30
2017-11-29T07:45:37.672Z,30.10
2017-11-29T07:46:37.656Z,25.60
2017-11-29T07:47:37.649Z,26.70
2017-11-29T07:48:37.639Z,30.80
2017-11-29T07:49:37.631Z,24.70
2017-11-29T07:50:37.624Z,21.10
2017-11-29T07:51:37.614Z,23.60
2017-11-29T07:52:37.608Z,37.60
2017-11-29T07:53:37.597Z,32.70
2017-11-29T07:54:37.589Z,25.90
2017-11-29T07:55:37.581Z,31.40
2017-11-29T07:56:37.572Z,34.60
2017-11-29T07:57:37.563Z,35.70
2017-11-29T07:58:37.556Z,34.90
2017-11-29T07:59:37.548Z,34.80
2017-11-29T08:00:37.540Z,36.80
2017-11-29T08:01:37.531Z,38.20
2017-11-29T08:02:37.533Z,30.60
2017-11-29T08:03:37.514Z,28.10
2017-11-29T08:04:37.505Z,23.60
2017-11-29T08:05:37.496Z,38.40
2017-11-29T08:06:37.489Z,31.30
2017-11-29T08:07:37.487Z,30.20
2017-11-29T08:08:37.472Z,20.20
2017-11-29T08:09:37.462Z,27.20
2017-11-29T08:10:37.455Z,25.10
2017-11-29T08:11:37.447Z,33.50
2017-11-29T08:12:37.439Z,26.10
2017-11-29T08:13:37.430Z,21.90
2017-11-29T08:14:37.424Z,15.60
2017-11-29T08:15:37.416Z,21.60
2017-11-29T08:16:37.407Z,20.90
2017-11-29T08:17:37.399Z,19.20
2017-11-29T08:18:37.390Z,28.00
2017-11-29T08:19:37.382Z,23.00
2017-11-29T08:20:37.373Z,16.70
2017-11-29T08:21:37.371Z,10.90
2017-11-29T08:22:37.357Z,21.80
2017-11-29T08:23:37.350Z,20.40
2017-11-29T08:24:37.340Z,10.40
2017-11-29T08:25:37.333Z,21.40
2017-11-29T08:26:37.343Z,14.30
2017-11-29T08:27:37.317Z,19.20
2017-11-29T08:28:37.311Z,16.50
2017-11-29T08:29:37.300Z,22.70
2017-11-29T08:30:37.291Z,19.80
2017-11-29T08:31:37.283Z,16.30
2017-11-29T08:32:37.274Z,18.60
2017-11-29T08:33:37.268Z,20.40
2017-11-29T08:34:37.259Z,18.30
2017-11-29T08:35:37.252Z,18.00
2017-11-29T08:36:37.243Z,21.30
2017-11-29T08:37:37.235Z,17.50
2017-11-29T08:38:37.228Z,24.50
2017-11-29T08:39:37.219Z,19.50
2017-11-29T08:40:37.211Z,24.90
2017-11-29T08:41:37.201Z,18.90
2017-11-29T08:42:37.194Z,19.00
2017-11-29T08:43:37.190Z,19.80
2017-11-29T08:44:37.178Z,25.40
2017-11-29T08:45:37.171Z,18.90
2017-11-29T08:46:37.163Z,14.40
2017-11-29T08:47:37.153Z,16.60
2017-11-29T08:48:37.146Z,19.40
2017-11-29T08:49:37.138Z,17.30
2017-11-29T08:50:37.131Z,21.80
2017-11-29T08:51:37.122Z,18.10
2017-11-29T08:52:37.114Z,25.60
2017-11-29T08:53:37.106Z,16.40
2017-11-29T08:54:37.098Z,17.40
2017-11-29T08:55:37.090Z,16.50
2017-11-29T08:56:37.082Z,26.10
2017-11-29T08:57:37.074Z,19.80
2017-11-29T08:58:37.086Z,24.10
2017-11-29T08:59:37.058Z,21.70
2017-11-29T09:00:37.049Z,20.50
2017-11-29T09:01:37.043Z,17.60
2017-11-29T09:02:37.036Z,20.00
2017-11-29T09:03:37.028Z,18.80
2017-11-29T09:04:37.019Z,19.90
2017-11-29T09:05:37.015Z,21.80
2017-11-29T09:06:37.004Z,22.20
2017-11-29T09:07:36.995Z,21.40
2017-11-29T09:08:36.987Z,23.00
2017-11-29T09:09:36.979Z,25.50
2017-11-29T09:10:36.971Z,20.90
2017-11-29T09:11:36.964Z,25.10
2017-11-29T09:12:36.955Z,28.30
2017-11-29T09:13:36.951Z,21.60
2017-11-29T09:14:36.940Z,23.60
2017-11-29T09:15:36.933Z,19.70
2017-11-29T09:16:36.924Z,24.80
2017-11-29T09:17:36.921Z,26.70
2017-11-29T09:18:36.907Z,27.30
2017-11-29T09:19:36.902Z,28.80
2017-11-29T09:20:36.913Z,23.80
2017-11-29T09:21:36.883Z,21.10
2017-11-29T09:22:36.875Z,22.60
2017-11-29T09:23:36.868Z,28.70
2017-11-29T09:24:36.860Z,27.50
2017-11-29T09:25:36.852Z,33.20
2017-11-29T09:26:36.844Z,24.40
2017-11-29T09:27:36.837Z,30.60
2017-11-29T09:28:36.829Z,24.80
2017-11-29T09:29:36.821Z,28.70
2017-11-29T09:30:36.815Z,22.60
2017-11-29T09:31:36.806Z,22.80
2017-11-29T09:32:36.797Z,28.60
2017-11-29T09:33:36.789Z,25.50
2017-11-29T09:34:36.781Z,30.50
2017-11-29T09:35:36.774Z,31.00
2017-11-29T09:36:36.766Z,26.00
2017-11-29T09:37:36.757Z,27.80
2017-11-29T09:38:36.754Z,22.80
2017-11-29T09:39:36.743Z,20.40
2017-11-29T09:40:36.733Z,20.10
2017-11-29T09:41:36.726Z,27.00
2017-11-29T09:42:36.717Z,21.20
2017-11-29T09:43:36.712Z,27.40
2017-11-29T09:44:36.703Z,23.40
2017-11-29T09:45:36.701Z,22.30
2017-11-29T09:46:36.688Z,25.60
2017-11-29T09:47:36.679Z,25.80
2017-11-29T09:48:36.671Z,29.20
2017-11-29T09:49:36.665Z,29.10
2017-11-29T09:50:36.655Z,20.30
2017-11-29T09:51:36.648Z,25.60
2017-11-29T09:52:36.638Z,27.70
2017-11-29T09:53:36.631Z,24.20
2017-11-29T09:54:36.622Z,31.50
2017-11-29T09:55:36.616Z,32.90
2017-11-29T09:56:36.607Z,30.10
2017-11-29T09:57:36.600Z,24.80
2017-11-29T09:58:36.592Z,24.20
2017-11-29T09:59:36.591Z,26.60
2017-11-29T10:00:36.575Z,27.80
2017-11-29T10:01:36.568Z,31.50
2017-11-29T10:02:36.561Z,26.90
2017-11-29T10:03:36.553Z,28.10
2017-11-29T10:04:36.544Z,17.30
2017-11-29T10:05:36.537Z,28.30
2017-11-29T10:06:36.536Z,29.00
2017-11-29T10:07:36.523Z,22.00
2017-11-29T10:08:36.515Z,28.10
2017-11-29T10:09:36.507Z,24.70
2017-11-29T10:10:36.500Z,25.00
2017-11-29T10:11:36.491Z,24.80
2017-11-29T10:12:36.483Z,22.10
2017-11-29T10:13:36.480Z,21.90
2017-11-29T10:14:36.467Z,27.10
2017-11-29T10:15:36.464Z,26.00
2017-11-29T10:16:36.452Z,21.30
2017-11-29T10:17:36.445Z,27.20
2017-11-29T10:18:36.437Z,24.60
2017-11-29T10:19:36.428Z,22.90
2017-11-29T10:20:36.419Z,27.80
2017-11-29T10:21:36.412Z,22.00
2017-11-29T10:22:36.405Z,26.60
2017-11-29T10:23:36.396Z,32.60
2017-11-29T10:24:36.388Z,23.60
2017-11-29T10:25:36.380Z,20.60
2017-11-29T10:26:36.378Z,21.90
2017-11-29T10:27:36.384Z,24.30
2017-11-29T10:28:36.357Z,40.10
2017-11-29T10:29:36.348Z,27.90
2017-11-29T10:30:36.341Z,25.70
2017-11-29T10:31:36.335Z,28.70
2017-11-29T10:32:36.326Z,28.90
2017-11-29T10:33:36.319Z,27.30
2017-11-29T10:34:36.309Z,20.80
2017-11-29T10:35:36.303Z,22.40
2017-11-29T10:36:36.293Z,22.50
2017-11-29T10:37:36.286Z,24.70
2017-11-29T10:38:36.278Z,27.50
2017-11-29T10:39:36.270Z,21.10
2017-11-29T10:40:36.262Z,26.00
2017-11-29T10:41:36.256Z,22.70
2017-11-29T10:42:36.249Z,20.60
2017-11-29T10:43:36.246Z,28.70
2017-11-29T10:44:36.234Z,18.90
2017-11-29T10:45:36.223Z,24.70
2017-11-29T10:46:36.216Z,25.80
2017-11-29T10:47:36.206Z,20.70
2017-11-29T10:48:36.201Z,28.40
2017-11-29T10:49:36.192Z,20.50
2017-11-29T10:50:36.186Z,17.90
2017-11-29T10:51:36.176Z,21.50
2017-11-29T10:52:36.168Z,25.90
2017-11-29T10:53:36.161Z,22.40
2017-11-29T10:54:36.162Z,27.60
2017-11-29T10:55:36.145Z,22.40
2017-11-29T10:56:36.139Z,23.00
2017-11-29T10:57:36.130Z,30.70
2017-11-29T10:58:36.121Z,24.60
2017-11-29T10:59:36.115Z,30.20
2017-11-29T11:00:36.106Z,23.00
2017-11-29T11:01:36.098Z,20.90
2017-11-29T11:02:36.092Z,26.90
2017-11-29T11:03:36.086Z,18.70
2017-11-29T11:04:36.078Z,21.70
2017-11-29T11:05:36.068Z,33.50
2017-11-29T11:06:36.058Z,21.70
2017-11-29T11:07:36.052Z,49.30
2017-11-29T11:08:36.043Z,27.20
2017-11-29T11:09:36.035Z,27.30
2017-11-29T11:10:36.030Z,25.90
2017-11-29T11:11:36.023Z,28.40
2017-11-29T11:12:36.013Z,29.70
2017-11-29T11:13:36.005Z,36.40
2017-11-29T11:14:35.998Z,20.60
2017-11-29T11:15:35.994Z,24.80
2017-11-29T11:16:35.983Z,15.70
2017-11-29T11:17:35.976Z,18.80
2017-11-29T11:18:35.968Z,20.00
2017-11-29T11:19:35.961Z,22.10
2017-11-29T11:20:35.950Z,19.70
2017-11-29T11:21:35.943Z,17.40
2017-11-29T11:22:35.971Z,13.50
2017-11-29T11:23:35.928Z,17.70
2017-11-29T11:24:35.919Z,17.20
2017-11-29T11:25:35.912Z,16.50
2017-11-29T11:26:35.908Z,21.20
2017-11-29T11:27:35.896Z,18.20
2017-11-29T11:28:35.889Z,16.90
2017-11-29T11:29:35.881Z,20.60
2017-11-29T11:30:35.876Z,20.70
2017-11-29T11:31:35.868Z,21.30
2017-11-29T11:32:35.863Z,19.60
2017-11-29T11:33:35.853Z,16.40
2017-11-29T11:34:35.843Z,23.30
2017-11-29T11:35:35.835Z,17.10
2017-11-29T11:36:35.827Z,16.20
2017-11-29T11:37:35.818Z,20.70
2017-11-29T11:38:35.811Z,20.40
2017-11-29T11:39:35.811Z,15.80
2017-11-29T11:40:35.803Z,17.10
2017-11-29T11:41:35.787Z,26.40
2017-11-29T11:42:35.780Z,19.50
2017-11-29T11:43:35.774Z,20.70
2017-11-29T11:44:35.768Z,18.50
2017-11-29T11:45:35.756Z,18.60
2017-11-29T11:46:35.750Z,22.50
2017-11-29T11:47:35.743Z,21.60
2017-11-29T11:48:35.732Z,17.30
2017-11-29T11:49:35.725Z,23.50
2017-11-29T11:50:35.717Z,18.30
2017-11-29T11:51:35.710Z,23.40
2017-11-29T11:52:35.702Z,18.00
2017-11-29T11:53:35.693Z,20.50
2017-11-29T11:54:35.687Z,19.20
2017-11-29T11:55:35.680Z,17.70
2017-11-29T11:56:35.671Z,15.30
2017-11-29T11:57:35.663Z,18.10
2017-11-29T11:58:35.656Z,17.90
2017-11-29T11:59:35.647Z,15.40
2017-11-29T12:00:35.640Z,18.90
2017-11-29T12:01:35.641Z,15.90
2017-11-29T12:02:35.626Z,19.50
2017-11-29T12:03:35.618Z,18.80
2017-11-29T12:04:35.613Z,16.20
2017-11-29T12:05:35.602Z,12.20
2017-11-29T12:06:35.593Z,13.80
2017-11-29T12:07:35.587Z,15.60
2017-11-29T12:08:35.585Z,18.30
2017-11-29T12:09:35.572Z,22.50
2017-11-29T12:10:35.564Z,15.30
2017-11-29T12:11:35.556Z,13.00
2017-11-29T12:12:35.547Z,11.90
2017-11-29T12:13:35.548Z,11.80
2017-11-29T12:14:35.533Z,15.80
2017-11-29T12:15:35.526Z,14.20
2017-11-29T12:16:35.518Z,15.10
2017-11-29T12:17:35.515Z,14.30
2017-11-29T12:18:35.513Z,17.70
2017-11-29T12:19:35.496Z,18.00
2017-11-29T12:20:35.488Z,17.30
2017-11-29T12:21:35.482Z,15.00
2017-11-29T12:22:35.474Z,19.10
2017-11-29T12:23:35.465Z,20.00
2017-11-29T12:24:35.458Z,20.30
2017-11-29T12:25:35.450Z,20.60
2017-11-29T12:26:35.457Z,21.10
2017-11-29T12:27:35.437Z,13.80
2017-11-29T12:28:35.428Z,14.10
2017-11-29T12:29:35.420Z,17.90
2017-11-29T12:30:35.412Z,16.90
2017-11-29T12:31:35.436Z,14.80
2017-11-29T12:32:35.398Z,16.40
2017-11-29T12:33:35.391Z,17.80
2017-11-29T12:34:35.382Z,13.90
2017-11-29T12:35:35.378Z,12.90
2017-11-29T12:36:35.368Z,15.00
2017-11-29T12:37:35.364Z,14.20
2017-11-29T12:38:35.352Z,15.70
2017-11-29T12:39:35.346Z,13.30
2017-11-29T12:40:35.338Z,15.10
2017-11-29T12:41:35.334Z,14.00
2017-11-29T12:42:35.321Z,10.50
2017-11-29T12:43:35.315Z,13.30
2017-11-29T12:44:35.308Z,13.30
2017-11-29T12:45:35.299Z,15.10
2017-11-29T12:46:35.291Z,11.90
2017-11-29T12:47:35.284Z,10.00
2017-11-29T12:48:35.276Z,9.80
2017-11-29T12:49:35.267Z,13.70
2017-11-29T12:50:35.260Z,12.30
2017-11-29T12:51:35.253Z,12.40
2017-11-29T12:52:35.249Z,16.30
2017-11-29T12:53:35.236Z,17.40
2017-11-29T12:54:35.228Z,12.40